Aviation Digital Data Service (ADDS)

Output produced by METARs form (1821 UTC 22 November 2017)
found at http://www.aviationweather.gov/adds/metars/
 
RPLC 221800Z 35003KT 9999 FEW020 BKN100 25/22 Q1010 NOSIG RMK A2983
TAF RPLC 221700Z 2218/2324 03006KT 9999 SCT020 BKN300 TX30/2306Z TN24/2221Z 
     TEMPO 2218/2224 31008KT FEW020 BKN300
       
RPVD 221800Z 00000KT 9999 FEW015 SCT220 26/25 Q1007 RMK A2974
TAF RPVD 221700Z 2218/2318 04006KT 9999 FEW015 BKN220 
     TEMPO 2218/2224 02004KT 9000 -SHRA FEW014CB SCT015 BKN080
       
RPMD 221800Z 35002KT 9999 FEW016 SCT290 25/23 Q1007 RMK A2974
TAF RPMD 221700Z 2218/2318 02006KT 9999 FEW016 SCT290 
     TEMPO 2218/2224 36004KT 9000 -SHRA FEW015CB SCT016 BKN090
       
RPLI 221800Z 11002KT 9999 FEW019 25/24 Q1009 NOSIG RMK A2980
TAF RPLI 221700Z 2218/2318 34006KT 9999 FEW019 
     TEMPO 2218/2224 11003KT FEW019 SCT100
       
RPVM 221800Z 04006KT 9999 FEW020 BKN090 27/25 Q1008 RMK A2977
TAF RPVM 221700Z 2218/2324 04006KT 9999 FEW020 SCT300 
     TEMPO 2218/2224 36008KT FEW020 BKN100 
     TEMPO 2300/2306 02008KT 9000 -SHRA FEW018CB FEW020 BKN100
       
RPLB 221800Z VRB02KT 9999 FEW020 25/22 Q1008 NOSIG RMK A2977
TAF RPLB 221700Z 2218/2318 04007KT 9999 FEW020 SCT300 TX32/2306Z TN25/2222Z 
     TEMPO 2218/2224 07014KT FEW020 SCT080 BKN300
       
RPLC 221800Z 35003KT 9999 FEW020 BKN100 25/22 Q1010 NOSIG RMK A2983
TAF RPLC 221700Z 2218/2324 03006KT 9999 SCT020 BKN300 TX30/2306Z TN24/2221Z 
     TEMPO 2218/2224 31008KT FEW020 BKN300
       
RPLI 221800Z 11002KT 9999 FEW019 25/24 Q1009 NOSIG RMK A2980
TAF RPLI 221700Z 2218/2318 34006KT 9999 FEW019 
     TEMPO 2218/2224 11003KT FEW019 SCT100
       
RPLL 221800Z 00000KT 9999 FEW025 26/26 Q1009 NOSIG RMK A2980
TAF RPLL 221700Z 2218/2324 10006KT 9999 FEW025 SCT300 TX33/2306Z TN25/2221Z 
     TEMPO 2218/2224 VRB02KT FEW025 SCT100 
     TEMPO 2306/2312 11008KT FEW023CB FEW025 BKN100
       
RPMD 221800Z 35002KT 9999 FEW016 SCT290 25/23 Q1007 RMK A2974
TAF RPMD 221700Z 2218/2318 02006KT 9999 FEW016 SCT290 
     TEMPO 2218/2224 36004KT 9000 -SHRA FEW015CB SCT016 BKN090
       
TAF RPMR 221700Z 2218/2318 04006KT 9999 FEW018 BKN250 
     TEMPO 2218/2224 35004KT FEW017CB SCT018 BKN080
       
RPMZ 221800Z 00000KT 9999 FEW017 SCT100 BKN300 26/24 Q1008 RMK A2977
TAF RPMZ 221700Z 2218/2318 27004KT 9999 FEW018 SCT300 
     TEMPO 2218/2224 00000KT FEW017CB FEW018 BKN300
       
RPVD 221800Z 00000KT 9999 FEW015 SCT220 26/25 Q1007 RMK A2974
TAF RPVD 221700Z 2218/2318 04006KT 9999 FEW015 BKN220 
     TEMPO 2218/2224 02004KT 9000 -SHRA FEW014CB SCT015 BKN080
       
RPVM 221800Z 04006KT 9999 FEW020 BKN090 27/25 Q1008 RMK A2977
TAF RPVM 221700Z 2218/2324 04006KT 9999 FEW020 SCT300 
     TEMPO 2218/2224 36008KT FEW020 BKN100 
     TEMPO 2300/2306 02008KT 9000 -SHRA FEW018CB FEW020 BKN100
       
TAF RPVP 221700Z 2218/2318 09008KT 9999 FEW019 SCT250 
     TEMPO 2218/2224 29004KT FEW017CB FEW019 SCT080
       
RPLL 221800Z 00000KT 9999 FEW025 26/26 Q1009 NOSIG RMK A2980
TAF RPLL 221700Z 2218/2324 10006KT 9999 FEW025 SCT300 TX33/2306Z TN25/2221Z 
     TEMPO 2218/2224 VRB02KT FEW025 SCT100 
     TEMPO 2306/2312 11008KT FEW023CB FEW025 BKN100
       
TAF RPVP 221700Z 2218/2318 09008KT 9999 FEW019 SCT250 
     TEMPO 2218/2224 29004KT FEW017CB FEW019 SCT080
       
RPLB 221800Z VRB02KT 9999 FEW020 25/22 Q1008 NOSIG RMK A2977
TAF RPLB 221700Z 2218/2318 04007KT 9999 FEW020 SCT300 TX32/2306Z TN25/2222Z 
     TEMPO 2218/2224 07014KT FEW020 SCT080 BKN300
       
TAF RPMR 221700Z 2218/2318 04006KT 9999 FEW018 BKN250 
     TEMPO 2218/2224 35004KT FEW017CB SCT018 BKN080
       
RPMZ 221800Z 00000KT 9999 FEW017 SCT100 BKN300 26/24 Q1008 RMK A2977
TAF RPMZ 221700Z 2218/2318 27004KT 9999 FEW018 SCT300 
     TEMPO 2218/2224 00000KT FEW017CB FEW018 BKN300